74T weather

Hicks Airport
Ponder, Texas, United States

Public forecast

Using degrees Fahrenheit for public forecast. Weather courtesy of forecast.io.

Closest aviation weather report (METAR) to Hicks Airport

Closest report is Denton Municipal Airport, 3.0 nm (5.6 km) ENE. Retrieved 2019/11/13 18:53 UTC (46 minutes ago):

KDTO 131853Z 18008KT 10SM CLR 07/M08 A3015 RMK AO2 SLP213 T00671078

Closest aviation forecast (TAF) to Hicks Airport

Closest forecast is Fort Worth Alliance Airport, 12.2 nm (22.6 km) SSW. Retrieved 2019/11/13 18:22 UTC (1 hour ago):

TAF KAFW 131720Z 1318/1418 17011KT P6SM BKN250 FM140400 17008KT P6SM OVC040 FM141200 35006KT P6SM SCT015 OVC035 FM141700 01010KT P6SM FEW250